sensor_id;sensor_type;location;lat;lon;timestamp;P1;durP1;ratioP1;P2;durP2;ratioP2
4812;SDS011;2420;51.202;8.698;2023-11-21T00:01:01;10.65;;;5.78;;
4812;SDS011;2420;51.202;8.698;2023-11-21T00:03:28;8.45;;;5.43;;
4812;SDS011;2420;51.202;8.698;2023-11-21T00:05:55;10.90;;;5.85;;
4812;SDS011;2420;51.202;8.698;2023-11-21T00:08:20;7.65;;;5.40;;
4812;SDS011;2420;51.202;8.698;2023-11-21T00:10:46;8.95;;;6.03;;
4812;SDS011;2420;51.202;8.698;2023-11-21T00:13:13;11.35;;;6.55;;
4812;SDS011;2420;51.202;8.698;2023-11-21T00:15:39;10.07;;;6.53;;
4812;SDS011;2420;51.202;8.698;2023-11-21T00:18:05;11.27;;;6.70;;
4812;SDS011;2420;51.202;8.698;2023-11-21T00:20:31;11.05;;;7.00;;
4812;SDS011;2420;51.202;8.698;2023-11-21T00:22:57;12.88;;;7.68;;
4812;SDS011;2420;51.202;8.698;2023-11-21T00:25:22;12.55;;;7.57;;
4812;SDS011;2420;51.202;8.698;2023-11-21T00:27:48;20.63;;;8.43;;
4812;SDS011;2420;51.202;8.698;2023-11-21T00:30:13;15.57;;;8.30;;
4812;SDS011;2420;51.202;8.698;2023-11-21T00:32:39;11.38;;;7.53;;
4812;SDS011;2420;51.202;8.698;2023-11-21T00:35:05;16.98;;;8.30;;
4812;SDS011;2420;51.202;8.698;2023-11-21T00:37:31;14.13;;;7.93;;
4812;SDS011;2420;51.202;8.698;2023-11-21T00:39:57;15.63;;;9.57;;
4812;SDS011;2420;51.202;8.698;2023-11-21T00:42:22;15.88;;;9.68;;
4812;SDS011;2420;51.202;8.698;2023-11-21T00:44:48;15.68;;;8.18;;
4812;SDS011;2420;51.202;8.698;2023-11-21T00:47:14;13.80;;;8.40;;
4812;SDS011;2420;51.202;8.698;2023-11-21T00:49:39;11.30;;;7.43;;
4812;SDS011;2420;51.202;8.698;2023-11-21T00:52:05;11.32;;;7.35;;
4812;SDS011;2420;51.202;8.698;2023-11-21T00:54:31;11.43;;;6.85;;
4812;SDS011;2420;51.202;8.698;2023-11-21T00:56:57;13.65;;;7.50;;
4812;SDS011;2420;51.202;8.698;2023-11-21T00:59:22;12.45;;;6.97;;
4812;SDS011;2420;51.202;8.698;2023-11-21T01:01:48;11.88;;;7.10;;
4812;SDS011;2420;51.202;8.698;2023-11-21T01:04:14;12.20;;;6.60;;
4812;SDS011;2420;51.202;8.698;2023-11-21T01:06:39;11.68;;;6.95;;
4812;SDS011;2420;51.202;8.698;2023-11-21T01:09:05;15.23;;;7.22;;
4812;SDS011;2420;51.202;8.698;2023-11-21T01:11:34;12.35;;;7.65;;
4812;SDS011;2420;51.202;8.698;2023-11-21T01:14:02;16.95;;;8.05;;
4812;SDS011;2420;51.202;8.698;2023-11-21T01:16:29;16.08;;;8.20;;
4812;SDS011;2420;51.202;8.698;2023-11-21T01:18:55;14.68;;;7.85;;
4812;SDS011;2420;51.202;8.698;2023-11-21T01:21:20;12.32;;;7.40;;
4812;SDS011;2420;51.202;8.698;2023-11-21T01:23:46;13.75;;;7.68;;
4812;SDS011;2420;51.202;8.698;2023-11-21T01:26:12;11.85;;;7.40;;
4812;SDS011;2420;51.202;8.698;2023-11-21T01:28:38;11.00;;;6.95;;
4812;SDS011;2420;51.202;8.698;2023-11-21T01:31:03;12.13;;;7.80;;
4812;SDS011;2420;51.202;8.698;2023-11-21T01:33:29;12.45;;;7.78;;
4812;SDS011;2420;51.202;8.698;2023-11-21T01:35:55;11.50;;;7.85;;
4812;SDS011;2420;51.202;8.698;2023-11-21T01:38:21;13.68;;;7.40;;
4812;SDS011;2420;51.202;8.698;2023-11-21T01:40:47;14.48;;;8.18;;
4812;SDS011;2420;51.202;8.698;2023-11-21T01:43:13;20.20;;;8.55;;
4812;SDS011;2420;51.202;8.698;2023-11-21T01:45:38;16.42;;;7.90;;
4812;SDS011;2420;51.202;8.698;2023-11-21T01:48:04;17.60;;;7.53;;
4812;SDS011;2420;51.202;8.698;2023-11-21T01:50:31;13.30;;;7.30;;
4812;SDS011;2420;51.202;8.698;2023-11-21T01:52:58;11.73;;;6.65;;
4812;SDS011;2420;51.202;8.698;2023-11-21T01:55:24;12.13;;;6.88;;
4812;SDS011;2420;51.202;8.698;2023-11-21T01:57:52;13.10;;;7.03;;
4812;SDS011;2420;51.202;8.698;2023-11-21T02:00:18;13.68;;;6.78;;
4812;SDS011;2420;51.202;8.698;2023-11-21T02:02:47;11.80;;;7.38;;
4812;SDS011;2420;51.202;8.698;2023-11-21T02:05:18;12.20;;;6.75;;
4812;SDS011;2420;51.202;8.698;2023-11-21T02:07:44;13.55;;;6.82;;
4812;SDS011;2420;51.202;8.698;2023-11-21T02:10:14;12.63;;;7.45;;
4812;SDS011;2420;51.202;8.698;2023-11-21T02:12:43;11.02;;;6.85;;
4812;SDS011;2420;51.202;8.698;2023-11-21T02:15:13;12.00;;;6.38;;
4812;SDS011;2420;51.202;8.698;2023-11-21T02:17:45;13.32;;;7.10;;
4812;SDS011;2420;51.202;8.698;2023-11-21T02:20:16;13.13;;;7.55;;
4812;SDS011;2420;51.202;8.698;2023-11-21T02:22:43;10.05;;;6.80;;
4812;SDS011;2420;51.202;8.698;2023-11-21T02:25:23;12.50;;;6.80;;
4812;SDS011;2420;51.202;8.698;2023-11-21T02:27:52;9.60;;;5.93;;
4812;SDS011;2420;51.202;8.698;2023-11-21T02:30:20;11.27;;;5.95;;
4812;SDS011;2420;51.202;8.698;2023-11-21T02:32:46;11.35;;;6.32;;
4812;SDS011;2420;51.202;8.698;2023-11-21T02:35:13;10.23;;;6.25;;
4812;SDS011;2420;51.202;8.698;2023-11-21T02:37:40;9.98;;;6.70;;
4812;SDS011;2420;51.202;8.698;2023-11-21T02:40:08;10.65;;;6.32;;
4812;SDS011;2420;51.202;8.698;2023-11-21T02:42:34;10.02;;;6.32;;
4812;SDS011;2420;51.202;8.698;2023-11-21T02:45:00;12.27;;;6.10;;
4812;SDS011;2420;51.202;8.698;2023-11-21T02:47:26;11.32;;;6.40;;
4812;SDS011;2420;51.202;8.698;2023-11-21T02:49:51;15.80;;;4.97;;
4812;SDS011;2420;51.202;8.698;2023-11-21T02:52:17;10.88;;;5.45;;
4812;SDS011;2420;51.202;8.698;2023-11-21T02:54:44;7.93;;;4.68;;
4812;SDS011;2420;51.202;8.698;2023-11-21T02:57:10;15.88;;;5.05;;
4812;SDS011;2420;51.202;8.698;2023-11-21T02:59:35;9.35;;;4.53;;
4812;SDS011;2420;51.202;8.698;2023-11-21T03:02:01;8.38;;;4.75;;
4812;SDS011;2420;51.202;8.698;2023-11-21T03:04:26;8.32;;;5.00;;
4812;SDS011;2420;51.202;8.698;2023-11-21T03:06:52;7.40;;;4.70;;
4812;SDS011;2420;51.202;8.698;2023-11-21T03:09:17;9.35;;;4.53;;
4812;SDS011;2420;51.202;8.698;2023-11-21T03:11:43;15.10;;;5.15;;
4812;SDS011;2420;51.202;8.698;2023-11-21T03:14:08;10.52;;;5.00;;
4812;SDS011;2420;51.202;8.698;2023-11-21T03:16:35;14.23;;;5.38;;
4812;SDS011;2420;51.202;8.698;2023-11-21T03:19:03;12.13;;;4.80;;
4812;SDS011;2420;51.202;8.698;2023-11-21T03:21:30;10.00;;;4.97;;
4812;SDS011;2420;51.202;8.698;2023-11-21T03:23:55;22.75;;;5.40;;
4812;SDS011;2420;51.202;8.698;2023-11-21T03:26:21;7.25;;;4.75;;
4812;SDS011;2420;51.202;8.698;2023-11-21T03:28:46;17.00;;;5.32;;
4812;SDS011;2420;51.202;8.698;2023-11-21T03:31:12;14.15;;;4.63;;
4812;SDS011;2420;51.202;8.698;2023-11-21T03:33:37;8.27;;;3.72;;
4812;SDS011;2420;51.202;8.698;2023-11-21T03:36:03;9.57;;;3.88;;
4812;SDS011;2420;51.202;8.698;2023-11-21T03:38:29;9.38;;;3.72;;
4812;SDS011;2420;51.202;8.698;2023-11-21T03:40:54;9.35;;;3.55;;
4812;SDS011;2420;51.202;8.698;2023-11-21T03:43:20;7.95;;;3.95;;
4812;SDS011;2420;51.202;8.698;2023-11-21T03:45:45;6.80;;;3.55;;
4812;SDS011;2420;51.202;8.698;2023-11-21T03:48:12;8.43;;;4.10;;
4812;SDS011;2420;51.202;8.698;2023-11-21T03:50:38;11.60;;;4.00;;
4812;SDS011;2420;51.202;8.698;2023-11-21T03:53:04;8.23;;;4.35;;
4812;SDS011;2420;51.202;8.698;2023-11-21T03:55:29;5.72;;;3.78;;
4812;SDS011;2420;51.202;8.698;2023-11-21T03:57:56;5.38;;;3.72;;
4812;SDS011;2420;51.202;8.698;2023-11-21T04:00:22;6.28;;;4.28;;
4812;SDS011;2420;51.202;8.698;2023-11-21T04:02:48;6.10;;;3.88;;
4812;SDS011;2420;51.202;8.698;2023-11-21T04:05:15;8.32;;;3.67;;
4812;SDS011;2420;51.202;8.698;2023-11-21T04:07:41;6.28;;;3.17;;
4812;SDS011;2420;51.202;8.698;2023-11-21T04:10:07;4.88;;;3.20;;
4812;SDS011;2420;51.202;8.698;2023-11-21T04:12:38;4.65;;;2.80;;
4812;SDS011;2420;51.202;8.698;2023-11-21T04:15:03;3.80;;;2.70;;
4812;SDS011;2420;51.202;8.698;2023-11-21T04:17:29;5.40;;;2.83;;
4812;SDS011;2420;51.202;8.698;2023-11-21T04:19:55;5.03;;;3.30;;
4812;SDS011;2420;51.202;8.698;2023-11-21T04:22:21;3.92;;;2.72;;
4812;SDS011;2420;51.202;8.698;2023-11-21T04:24:47;6.00;;;2.78;;
4812;SDS011;2420;51.202;8.698;2023-11-21T04:27:12;5.13;;;2.85;;
4812;SDS011;2420;51.202;8.698;2023-11-21T04:29:39;6.00;;;2.60;;
4812;SDS011;2420;51.202;8.698;2023-11-21T04:32:06;4.95;;;2.40;;
4812;SDS011;2420;51.202;8.698;2023-11-21T04:34:31;4.63;;;2.90;;
4812;SDS011;2420;51.202;8.698;2023-11-21T04:36:57;3.53;;;2.50;;
4812;SDS011;2420;51.202;8.698;2023-11-21T04:39:22;3.35;;;2.45;;
4812;SDS011;2420;51.202;8.698;2023-11-21T04:41:48;4.60;;;2.67;;
4812;SDS011;2420;51.202;8.698;2023-11-21T04:44:15;4.95;;;2.30;;
4812;SDS011;2420;51.202;8.698;2023-11-21T04:46:41;2.75;;;2.03;;
4812;SDS011;2420;51.202;8.698;2023-11-21T04:49:07;3.33;;;2.30;;
4812;SDS011;2420;51.202;8.698;2023-11-21T04:51:32;6.10;;;2.40;;
4812;SDS011;2420;51.202;8.698;2023-11-21T04:53:58;6.00;;;2.47;;
4812;SDS011;2420;51.202;8.698;2023-11-21T04:56:23;4.85;;;2.65;;
4812;SDS011;2420;51.202;8.698;2023-11-21T04:58:49;3.70;;;2.60;;
4812;SDS011;2420;51.202;8.698;2023-11-21T05:01:15;3.00;;;2.15;;
4812;SDS011;2420;51.202;8.698;2023-11-21T05:03:41;5.30;;;2.63;;
4812;SDS011;2420;51.202;8.698;2023-11-21T05:06:09;3.70;;;2.28;;
4812;SDS011;2420;51.202;8.698;2023-11-21T05:08:35;4.43;;;2.58;;
4812;SDS011;2420;51.202;8.698;2023-11-21T05:11:02;6.47;;;2.40;;
4812;SDS011;2420;51.202;8.698;2023-11-21T05:13:27;6.70;;;2.67;;
4812;SDS011;2420;51.202;8.698;2023-11-21T05:15:54;4.18;;;2.72;;
4812;SDS011;2420;51.202;8.698;2023-11-21T05:18:22;5.47;;;2.70;;
4812;SDS011;2420;51.202;8.698;2023-11-21T05:20:47;7.45;;;3.00;;
4812;SDS011;2420;51.202;8.698;2023-11-21T05:23:13;7.57;;;2.75;;
4812;SDS011;2420;51.202;8.698;2023-11-21T05:25:39;3.78;;;2.65;;
4812;SDS011;2420;51.202;8.698;2023-11-21T05:28:04;5.68;;;2.70;;
4812;SDS011;2420;51.202;8.698;2023-11-21T05:30:31;5.00;;;2.58;;
4812;SDS011;2420;51.202;8.698;2023-11-21T05:32:57;5.35;;;2.75;;
4812;SDS011;2420;51.202;8.698;2023-11-21T05:35:22;3.85;;;2.50;;
4812;SDS011;2420;51.202;8.698;2023-11-21T05:37:48;3.90;;;2.53;;
4812;SDS011;2420;51.202;8.698;2023-11-21T05:40:13;8.50;;;2.78;;
4812;SDS011;2420;51.202;8.698;2023-11-21T05:42:40;7.45;;;3.10;;
4812;SDS011;2420;51.202;8.698;2023-11-21T05:45:06;3.50;;;2.60;;
4812;SDS011;2420;51.202;8.698;2023-11-21T05:47:40;5.03;;;3.22;;
4812;SDS011;2420;51.202;8.698;2023-11-21T05:50:07;5.05;;;3.60;;
4812;SDS011;2420;51.202;8.698;2023-11-21T05:52:39;6.28;;;3.47;;
4812;SDS011;2420;51.202;8.698;2023-11-21T05:55:10;4.80;;;3.50;;
4812;SDS011;2420;51.202;8.698;2023-11-21T05:57:36;7.32;;;4.15;;
4812;SDS011;2420;51.202;8.698;2023-11-21T06:00:04;9.40;;;4.35;;
4812;SDS011;2420;51.202;8.698;2023-11-21T06:02:37;7.60;;;4.70;;
4812;SDS011;2420;51.202;8.698;2023-11-21T06:05:07;7.97;;;5.47;;
4812;SDS011;2420;51.202;8.698;2023-11-21T06:07:33;11.50;;;6.47;;
4812;SDS011;2420;51.202;8.698;2023-11-21T06:10:00;10.25;;;6.72;;
4812;SDS011;2420;51.202;8.698;2023-11-21T06:12:27;14.30;;;5.90;;
4812;SDS011;2420;51.202;8.698;2023-11-21T06:14:53;7.30;;;5.53;;
4812;SDS011;2420;51.202;8.698;2023-11-21T06:17:20;8.60;;;5.10;;
4812;SDS011;2420;51.202;8.698;2023-11-21T06:19:46;5.55;;;4.13;;
4812;SDS011;2420;51.202;8.698;2023-11-21T06:22:12;6.80;;;4.80;;
4812;SDS011;2420;51.202;8.698;2023-11-21T06:24:37;12.93;;;6.38;;
4812;SDS011;2420;51.202;8.698;2023-11-21T06:27:03;9.52;;;6.20;;
4812;SDS011;2420;51.202;8.698;2023-11-21T06:29:30;9.52;;;5.80;;
4812;SDS011;2420;51.202;8.698;2023-11-21T06:31:56;11.43;;;5.28;;
4812;SDS011;2420;51.202;8.698;2023-11-21T06:34:23;8.35;;;5.70;;
4812;SDS011;2420;51.202;8.698;2023-11-21T06:36:49;10.07;;;5.63;;
4812;SDS011;2420;51.202;8.698;2023-11-21T06:39:14;7.50;;;4.85;;
4812;SDS011;2420;51.202;8.698;2023-11-21T06:41:42;6.97;;;5.15;;
4812;SDS011;2420;51.202;8.698;2023-11-21T06:44:08;13.85;;;6.88;;
4812;SDS011;2420;51.202;8.698;2023-11-21T06:46:33;8.93;;;6.18;;
4812;SDS011;2420;51.202;8.698;2023-11-21T06:48:59;9.43;;;5.90;;
4812;SDS011;2420;51.202;8.698;2023-11-21T06:51:25;9.57;;;6.10;;
4812;SDS011;2420;51.202;8.698;2023-11-21T06:53:50;13.05;;;7.15;;
4812;SDS011;2420;51.202;8.698;2023-11-21T06:56:19;9.85;;;6.30;;
4812;SDS011;2420;51.202;8.698;2023-11-21T06:58:48;10.57;;;6.18;;
4812;SDS011;2420;51.202;8.698;2023-11-21T07:01:14;8.57;;;5.20;;
4812;SDS011;2420;51.202;8.698;2023-11-21T07:03:40;8.60;;;5.22;;
4812;SDS011;2420;51.202;8.698;2023-11-21T07:06:06;9.55;;;5.38;;
4812;SDS011;2420;51.202;8.698;2023-11-21T07:08:32;8.02;;;5.10;;
4812;SDS011;2420;51.202;8.698;2023-11-21T07:10:58;7.18;;;4.95;;
4812;SDS011;2420;51.202;8.698;2023-11-21T07:13:24;18.77;;;5.82;;
4812;SDS011;2420;51.202;8.698;2023-11-21T07:15:50;10.20;;;5.82;;
4812;SDS011;2420;51.202;8.698;2023-11-21T07:18:19;13.45;;;5.53;;
4812;SDS011;2420;51.202;8.698;2023-11-21T07:20:44;9.63;;;5.13;;
4812;SDS011;2420;51.202;8.698;2023-11-21T07:23:10;13.07;;;6.82;;
4812;SDS011;2420;51.202;8.698;2023-11-21T07:25:36;19.20;;;9.55;;
4812;SDS011;2420;51.202;8.698;2023-11-21T07:28:01;18.70;;;8.35;;
4812;SDS011;2420;51.202;8.698;2023-11-21T07:30:28;27.15;;;13.80;;
4812;SDS011;2420;51.202;8.698;2023-11-21T07:32:53;28.38;;;13.85;;
4812;SDS011;2420;51.202;8.698;2023-11-21T07:35:19;20.35;;;12.35;;
4812;SDS011;2420;51.202;8.698;2023-11-21T07:37:44;24.65;;;11.57;;
4812;SDS011;2420;51.202;8.698;2023-11-21T07:40:11;24.17;;;11.13;;
4812;SDS011;2420;51.202;8.698;2023-11-21T07:42:38;17.42;;;9.90;;
4812;SDS011;2420;51.202;8.698;2023-11-21T07:45:04;21.42;;;9.43;;
4812;SDS011;2420;51.202;8.698;2023-11-21T07:47:31;18.55;;;9.85;;
4812;SDS011;2420;51.202;8.698;2023-11-21T07:49:59;19.95;;;10.18;;
4812;SDS011;2420;51.202;8.698;2023-11-21T07:52:25;28.77;;;16.70;;
4812;SDS011;2420;51.202;8.698;2023-11-21T07:54:50;30.63;;;17.38;;
4812;SDS011;2420;51.202;8.698;2023-11-21T07:57:16;27.27;;;15.38;;
4812;SDS011;2420;51.202;8.698;2023-11-21T07:59:42;24.73;;;13.35;;
4812;SDS011;2420;51.202;8.698;2023-11-21T08:02:07;19.73;;;10.55;;
4812;SDS011;2420;51.202;8.698;2023-11-21T08:04:33;19.80;;;10.48;;
4812;SDS011;2420;51.202;8.698;2023-11-21T08:07:00;18.90;;;9.75;;
4812;SDS011;2420;51.202;8.698;2023-11-21T08:09:26;16.45;;;9.43;;
4812;SDS011;2420;51.202;8.698;2023-11-21T08:11:52;15.65;;;8.85;;
4812;SDS011;2420;51.202;8.698;2023-11-21T08:14:18;14.73;;;8.48;;
4812;SDS011;2420;51.202;8.698;2023-11-21T08:16:45;18.27;;;9.65;;
4812;SDS011;2420;51.202;8.698;2023-11-21T08:19:10;17.20;;;10.23;;
4812;SDS011;2420;51.202;8.698;2023-11-21T08:21:36;14.98;;;9.02;;
4812;SDS011;2420;51.202;8.698;2023-11-21T08:24:06;13.30;;;7.75;;
4812;SDS011;2420;51.202;8.698;2023-11-21T08:26:35;11.63;;;7.55;;
4812;SDS011;2420;51.202;8.698;2023-11-21T08:29:01;17.48;;;10.85;;
4812;SDS011;2420;51.202;8.698;2023-11-21T08:31:27;18.83;;;11.27;;
4812;SDS011;2420;51.202;8.698;2023-11-21T08:33:53;20.05;;;11.50;;
4812;SDS011;2420;51.202;8.698;2023-11-21T08:36:20;13.68;;;8.95;;
4812;SDS011;2420;51.202;8.698;2023-11-21T08:38:50;18.73;;;9.50;;
4812;SDS011;2420;51.202;8.698;2023-11-21T08:41:19;15.27;;;10.27;;
4812;SDS011;2420;51.202;8.698;2023-11-21T08:43:49;19.23;;;10.35;;
4812;SDS011;2420;51.202;8.698;2023-11-21T08:46:15;19.58;;;11.07;;
4812;SDS011;2420;51.202;8.698;2023-11-21T08:48:44;19.20;;;10.55;;
4812;SDS011;2420;51.202;8.698;2023-11-21T08:51:10;21.25;;;11.93;;
4812;SDS011;2420;51.202;8.698;2023-11-21T08:53:45;22.70;;;11.85;;
4812;SDS011;2420;51.202;8.698;2023-11-21T08:56:14;22.30;;;12.32;;
4812;SDS011;2420;51.202;8.698;2023-11-21T08:58:39;22.98;;;12.50;;
4812;SDS011;2420;51.202;8.698;2023-11-21T09:01:06;21.10;;;12.20;;
4812;SDS011;2420;51.202;8.698;2023-11-21T09:03:32;21.08;;;11.88;;
4812;SDS011;2420;51.202;8.698;2023-11-21T09:05:59;25.40;;;13.93;;
4812;SDS011;2420;51.202;8.698;2023-11-21T09:08:25;24.10;;;13.73;;
4812;SDS011;2420;51.202;8.698;2023-11-21T09:10:53;20.55;;;13.65;;
4812;SDS011;2420;51.202;8.698;2023-11-21T09:13:18;18.67;;;11.23;;
4812;SDS011;2420;51.202;8.698;2023-11-21T09:15:44;19.58;;;11.57;;
4812;SDS011;2420;51.202;8.698;2023-11-21T09:18:12;19.15;;;11.75;;
4812;SDS011;2420;51.202;8.698;2023-11-21T09:20:38;23.73;;;13.23;;
4812;SDS011;2420;51.202;8.698;2023-11-21T09:23:04;24.83;;;15.07;;
4812;SDS011;2420;51.202;8.698;2023-11-21T09:25:30;21.02;;;13.77;;
4812;SDS011;2420;51.202;8.698;2023-11-21T09:27:55;17.90;;;11.68;;
4812;SDS011;2420;51.202;8.698;2023-11-21T09:30:22;20.85;;;12.52;;
4812;SDS011;2420;51.202;8.698;2023-11-21T09:32:49;21.02;;;13.85;;
4812;SDS011;2420;51.202;8.698;2023-11-21T09:35:15;21.05;;;14.13;;
4812;SDS011;2420;51.202;8.698;2023-11-21T09:37:43;21.52;;;13.80;;
4812;SDS011;2420;51.202;8.698;2023-11-21T09:40:10;19.98;;;13.88;;
4812;SDS011;2420;51.202;8.698;2023-11-21T09:45:26;19.70;;;12.98;;
4812;SDS011;2420;51.202;8.698;2023-11-21T09:47:53;16.55;;;11.68;;
4812;SDS011;2420;51.202;8.698;2023-11-21T09:50:20;18.98;;;12.52;;
4812;SDS011;2420;51.202;8.698;2023-11-21T09:55:18;18.70;;;12.30;;
4812;SDS011;2420;51.202;8.698;2023-11-21T09:57:47;19.42;;;13.13;;
4812;SDS011;2420;51.202;8.698;2023-11-21T10:00:14;20.70;;;14.48;;
4812;SDS011;2420;51.202;8.698;2023-11-21T10:02:42;21.48;;;13.55;;
4812;SDS011;2420;51.202;8.698;2023-11-21T10:05:09;19.35;;;13.45;;
4812;SDS011;2420;51.202;8.698;2023-11-21T10:07:36;18.98;;;13.32;;
4812;SDS011;2420;51.202;8.698;2023-11-21T10:10:04;17.95;;;12.43;;
4812;SDS011;2420;51.202;8.698;2023-11-21T10:12:30;17.02;;;11.60;;
4812;SDS011;2420;51.202;8.698;2023-11-21T10:14:57;18.63;;;11.30;;
4812;SDS011;2420;51.202;8.698;2023-11-21T10:17:25;15.65;;;11.00;;
4812;SDS011;2420;51.202;8.698;2023-11-21T10:19:55;19.02;;;12.63;;
4812;SDS011;2420;51.202;8.698;2023-11-21T10:22:22;18.80;;;12.43;;
4812;SDS011;2420;51.202;8.698;2023-11-21T10:24:49;17.33;;;12.15;;
4812;SDS011;2420;51.202;8.698;2023-11-21T10:27:14;17.85;;;11.82;;
4812;SDS011;2420;51.202;8.698;2023-11-21T10:29:40;16.75;;;11.05;;
4812;SDS011;2420;51.202;8.698;2023-11-21T10:32:06;14.45;;;10.55;;
4812;SDS011;2420;51.202;8.698;2023-11-21T10:34:32;16.70;;;12.40;;
4812;SDS011;2420;51.202;8.698;2023-11-21T10:36:59;18.52;;;11.82;;
4812;SDS011;2420;51.202;8.698;2023-11-21T10:39:36;24.25;;;14.70;;
4812;SDS011;2420;51.202;8.698;2023-11-21T10:42:02;22.48;;;13.60;;
4812;SDS011;2420;51.202;8.698;2023-11-21T10:44:27;19.05;;;12.73;;
4812;SDS011;2420;51.202;8.698;2023-11-21T10:46:53;17.05;;;11.10;;
4812;SDS011;2420;51.202;8.698;2023-11-21T10:49:22;15.65;;;10.40;;
4812;SDS011;2420;51.202;8.698;2023-11-21T10:51:50;17.48;;;10.10;;
4812;SDS011;2420;51.202;8.698;2023-11-21T10:54:18;16.58;;;9.18;;
4812;SDS011;2420;51.202;8.698;2023-11-21T10:56:45;14.23;;;8.95;;
4812;SDS011;2420;51.202;8.698;2023-11-21T10:59:13;18.15;;;9.48;;
4812;SDS011;2420;51.202;8.698;2023-11-21T11:01:41;13.50;;;8.98;;
4812;SDS011;2420;51.202;8.698;2023-11-21T11:04:09;14.27;;;8.73;;
4812;SDS011;2420;51.202;8.698;2023-11-21T11:06:40;13.38;;;8.38;;
4812;SDS011;2420;51.202;8.698;2023-11-21T11:09:08;11.63;;;7.85;;
4812;SDS011;2420;51.202;8.698;2023-11-21T11:11:38;11.48;;;7.85;;
4812;SDS011;2420;51.202;8.698;2023-11-21T11:14:10;12.75;;;7.15;;
4812;SDS011;2420;51.202;8.698;2023-11-21T11:16:38;12.00;;;7.35;;
4812;SDS011;2420;51.202;8.698;2023-11-21T11:19:09;10.23;;;6.70;;
4812;SDS011;2420;51.202;8.698;2023-11-21T11:24:33;20.33;;;13.07;;
4812;SDS011;2420;51.202;8.698;2023-11-21T11:27:15;16.08;;;12.10;;
4812;SDS011;2420;51.202;8.698;2023-11-21T11:29:54;17.42;;;10.68;;
4812;SDS011;2420;51.202;8.698;2023-11-21T11:32:38;14.50;;;8.70;;
4812;SDS011;2420;51.202;8.698;2023-11-21T11:37:58;52.53;;;13.45;;
4812;SDS011;2420;51.202;8.698;2023-11-21T11:40:26;7.10;;;3.42;;
4812;SDS011;2420;51.202;8.698;2023-11-21T11:43:09;7.88;;;3.10;;
4812;SDS011;2420;51.202;8.698;2023-11-21T11:45:35;3.58;;;2.40;;
4812;SDS011;2420;51.202;8.698;2023-11-21T11:48:02;5.13;;;2.20;;
4812;SDS011;2420;51.202;8.698;2023-11-21T11:50:28;3.45;;;2.40;;
4812;SDS011;2420;51.202;8.698;2023-11-21T11:52:55;2.85;;;2.05;;
4812;SDS011;2420;51.202;8.698;2023-11-21T11:55:36;3.35;;;1.90;;
4812;SDS011;2420;51.202;8.698;2023-11-21T11:58:04;2.97;;;2.00;;
4812;SDS011;2420;51.202;8.698;2023-11-21T12:00:34;5.30;;;2.00;;
4812;SDS011;2420;51.202;8.698;2023-11-21T12:03:03;2.60;;;1.48;;
4812;SDS011;2420;51.202;8.698;2023-11-21T12:05:31;3.35;;;1.83;;
4812;SDS011;2420;51.202;8.698;2023-11-21T12:07:59;1.65;;;1.42;;
4812;SDS011;2420;51.202;8.698;2023-11-21T12:10:27;1.35;;;1.10;;
4812;SDS011;2420;51.202;8.698;2023-11-21T12:12:57;1.60;;;1.30;;
4812;SDS011;2420;51.202;8.698;2023-11-21T12:15:24;2.13;;;1.30;;
4812;SDS011;2420;51.202;8.698;2023-11-21T12:17:50;2.40;;;1.20;;
4812;SDS011;2420;51.202;8.698;2023-11-21T12:20:20;3.63;;;1.70;;
4812;SDS011;2420;51.202;8.698;2023-11-21T12:22:47;1.50;;;1.10;;
4812;SDS011;2420;51.202;8.698;2023-11-21T12:25:25;1.38;;;1.10;;
4812;SDS011;2420;51.202;8.698;2023-11-21T12:27:56;2.05;;;1.35;;
4812;SDS011;2420;51.202;8.698;2023-11-21T12:30:23;1.67;;;1.30;;
4812;SDS011;2420;51.202;8.698;2023-11-21T12:32:53;2.05;;;1.30;;
4812;SDS011;2420;51.202;8.698;2023-11-21T12:35:21;2.15;;;1.40;;
4812;SDS011;2420;51.202;8.698;2023-11-21T12:37:49;2.00;;;1.38;;
4812;SDS011;2420;51.202;8.698;2023-11-21T12:40:16;2.72;;;1.65;;
4812;SDS011;2420;51.202;8.698;2023-11-21T12:42:42;1.77;;;1.40;;
4812;SDS011;2420;51.202;8.698;2023-11-21T12:47:46;1.52;;;1.20;;
4812;SDS011;2420;51.202;8.698;2023-11-21T12:50:14;1.83;;;1.30;;
4812;SDS011;2420;51.202;8.698;2023-11-21T12:52:44;1.92;;;1.42;;
4812;SDS011;2420;51.202;8.698;2023-11-21T12:55:14;2.75;;;1.30;;
4812;SDS011;2420;51.202;8.698;2023-11-21T12:57:44;2.20;;;1.50;;
4812;SDS011;2420;51.202;8.698;2023-11-21T13:00:11;3.40;;;1.60;;
4812;SDS011;2420;51.202;8.698;2023-11-21T13:02:43;2.58;;;1.90;;
4812;SDS011;2420;51.202;8.698;2023-11-21T13:05:09;2.20;;;1.98;;
4812;SDS011;2420;51.202;8.698;2023-11-21T13:07:46;4.00;;;2.08;;
4812;SDS011;2420;51.202;8.698;2023-11-21T13:10:14;2.72;;;2.17;;
4812;SDS011;2420;51.202;8.698;2023-11-21T13:12:46;2.72;;;2.00;;
4812;SDS011;2420;51.202;8.698;2023-11-21T13:15:16;3.17;;;2.22;;
4812;SDS011;2420;51.202;8.698;2023-11-21T13:17:43;4.10;;;2.35;;
4812;SDS011;2420;51.202;8.698;2023-11-21T13:20:12;3.05;;;2.15;;
4812;SDS011;2420;51.202;8.698;2023-11-21T13:22:54;2.85;;;2.15;;
4812;SDS011;2420;51.202;8.698;2023-11-21T13:25:28;4.00;;;2.50;;
4812;SDS011;2420;51.202;8.698;2023-11-21T13:27:56;3.53;;;2.50;;
4812;SDS011;2420;51.202;8.698;2023-11-21T13:30:23;3.58;;;2.75;;
4812;SDS011;2420;51.202;8.698;2023-11-21T13:32:58;5.47;;;3.45;;
4812;SDS011;2420;51.202;8.698;2023-11-21T13:35:35;5.63;;;3.47;;
4812;SDS011;2420;51.202;8.698;2023-11-21T13:38:12;4.10;;;2.53;;
4812;SDS011;2420;51.202;8.698;2023-11-21T13:40:40;5.00;;;2.75;;
4812;SDS011;2420;51.202;8.698;2023-11-21T13:43:14;4.55;;;3.17;;
4812;SDS011;2420;51.202;8.698;2023-11-21T13:45:44;4.60;;;3.30;;
4812;SDS011;2420;51.202;8.698;2023-11-21T13:48:10;4.63;;;3.30;;
4812;SDS011;2420;51.202;8.698;2023-11-21T13:50:45;4.60;;;3.20;;
4812;SDS011;2420;51.202;8.698;2023-11-21T13:53:34;6.35;;;3.85;;
4812;SDS011;2420;51.202;8.698;2023-11-21T13:56:02;5.25;;;3.60;;
4812;SDS011;2420;51.202;8.698;2023-11-21T13:58:28;5.82;;;3.90;;
4812;SDS011;2420;51.202;8.698;2023-11-21T14:01:11;5.03;;;3.80;;
4812;SDS011;2420;51.202;8.698;2023-11-21T14:03:58;6.75;;;4.28;;
4812;SDS011;2420;51.202;8.698;2023-11-21T14:06:42;6.20;;;3.60;;
4812;SDS011;2420;51.202;8.698;2023-11-21T14:09:20;7.88;;;4.10;;
4812;SDS011;2420;51.202;8.698;2023-11-21T14:14:21;7.25;;;4.13;;
4812;SDS011;2420;51.202;8.698;2023-11-21T14:16:52;6.28;;;3.78;;
4812;SDS011;2420;51.202;8.698;2023-11-21T14:19:18;5.88;;;3.85;;
4812;SDS011;2420;51.202;8.698;2023-11-21T14:21:44;5.60;;;3.90;;
4812;SDS011;2420;51.202;8.698;2023-11-21T14:24:17;7.85;;;4.78;;
4812;SDS011;2420;51.202;8.698;2023-11-21T14:26:43;6.00;;;3.90;;
4812;SDS011;2420;51.202;8.698;2023-11-21T14:29:11;5.63;;;3.88;;
4812;SDS011;2420;51.202;8.698;2023-11-21T14:31:39;5.40;;;3.85;;
4812;SDS011;2420;51.202;8.698;2023-11-21T14:34:05;6.55;;;3.63;;
4812;SDS011;2420;51.202;8.698;2023-11-21T14:36:32;6.18;;;3.53;;
4812;SDS011;2420;51.202;8.698;2023-11-21T14:38:58;6.00;;;4.00;;
4812;SDS011;2420;51.202;8.698;2023-11-21T14:41:24;5.13;;;3.67;;
4812;SDS011;2420;51.202;8.698;2023-11-21T14:43:50;4.95;;;3.67;;
4812;SDS011;2420;51.202;8.698;2023-11-21T14:46:16;5.40;;;3.45;;
4812;SDS011;2420;51.202;8.698;2023-11-21T14:48:44;6.07;;;2.97;;
4812;SDS011;2420;51.202;8.698;2023-11-21T14:51:23;7.95;;;4.50;;
4812;SDS011;2420;51.202;8.698;2023-11-21T14:53:58;6.88;;;3.92;;
4812;SDS011;2420;51.202;8.698;2023-11-21T14:56:35;5.10;;;3.45;;
4812;SDS011;2420;51.202;8.698;2023-11-21T14:59:02;5.78;;;3.70;;
4812;SDS011;2420;51.202;8.698;2023-11-21T15:01:37;9.27;;;4.80;;
4812;SDS011;2420;51.202;8.698;2023-11-21T15:04:20;4.95;;;2.60;;
4812;SDS011;2420;51.202;8.698;2023-11-21T15:07:03;3.92;;;2.42;;
4812;SDS011;2420;51.202;8.698;2023-11-21T15:09:32;2.60;;;2.00;;
4812;SDS011;2420;51.202;8.698;2023-11-21T15:11:58;1.77;;;1.40;;
4812;SDS011;2420;51.202;8.698;2023-11-21T15:14:28;3.92;;;1.70;;
4812;SDS011;2420;51.202;8.698;2023-11-21T15:16:57;1.85;;;1.58;;
4812;SDS011;2420;51.202;8.698;2023-11-21T15:19:25;2.00;;;1.60;;
4812;SDS011;2420;51.202;8.698;2023-11-21T15:21:51;2.80;;;1.60;;
4812;SDS011;2420;51.202;8.698;2023-11-21T15:24:17;2.20;;;1.50;;